sensor_id;sensor_type;location;lat;lon;timestamp;temperature;humidity
15574;DHT22;7888;46.748;8.102;2024-02-26T00:01:43;13.10;31.90
15574;DHT22;7888;46.748;8.102;2024-02-26T00:04:09;13.10;31.90
15574;DHT22;7888;46.748;8.102;2024-02-26T00:06:36;13.10;32.10
15574;DHT22;7888;46.748;8.102;2024-02-26T00:09:02;13.10;31.70
15574;DHT22;7888;46.748;8.102;2024-02-26T00:11:31;13.10;31.80
15574;DHT22;7888;46.748;8.102;2024-02-26T00:13:57;13.10;31.90
15574;DHT22;7888;46.748;8.102;2024-02-26T00:16:23;13.20;32.10
15574;DHT22;7888;46.748;8.102;2024-02-26T00:18:49;13.10;32.00
15574;DHT22;7888;46.748;8.102;2024-02-26T00:21:15;13.20;32.10
15574;DHT22;7888;46.748;8.102;2024-02-26T00:23:41;13.10;32.70
15574;DHT22;7888;46.748;8.102;2024-02-26T00:26:07;13.10;32.30
15574;DHT22;7888;46.748;8.102;2024-02-26T00:28:33;13.10;32.40
15574;DHT22;7888;46.748;8.102;2024-02-26T00:30:59;13.10;32.70
15574;DHT22;7888;46.748;8.102;2024-02-26T00:33:25;13.00;32.90
15574;DHT22;7888;46.748;8.102;2024-02-26T00:35:50;13.00;33.20
15574;DHT22;7888;46.748;8.102;2024-02-26T00:38:16;13.00;33.50
15574;DHT22;7888;46.748;8.102;2024-02-26T00:40:42;12.90;33.90
15574;DHT22;7888;46.748;8.102;2024-02-26T00:43:08;12.90;34.20
15574;DHT22;7888;46.748;8.102;2024-02-26T00:45:33;12.90;34.40
15574;DHT22;7888;46.748;8.102;2024-02-26T00:47:59;12.80;34.50
15574;DHT22;7888;46.748;8.102;2024-02-26T00:50:33;12.80;34.90
15574;DHT22;7888;46.748;8.102;2024-02-26T00:53:00;12.70;35.00
15574;DHT22;7888;46.748;8.102;2024-02-26T00:55:26;12.70;35.80
15574;DHT22;7888;46.748;8.102;2024-02-26T00:57:52;12.70;35.30
15574;DHT22;7888;46.748;8.102;2024-02-26T01:00:18;12.60;35.50
15574;DHT22;7888;46.748;8.102;2024-02-26T01:02:44;12.60;35.80
15574;DHT22;7888;46.748;8.102;2024-02-26T01:05:12;12.60;36.00
15574;DHT22;7888;46.748;8.102;2024-02-26T01:07:39;12.50;36.20
15574;DHT22;7888;46.748;8.102;2024-02-26T01:10:06;12.50;36.50
15574;DHT22;7888;46.748;8.102;2024-02-26T01:12:33;12.50;36.70
15574;DHT22;7888;46.748;8.102;2024-02-26T01:15:00;12.40;36.80
15574;DHT22;7888;46.748;8.102;2024-02-26T01:17:26;12.40;37.00
15574;DHT22;7888;46.748;8.102;2024-02-26T01:19:52;12.30;37.10
15574;DHT22;7888;46.748;8.102;2024-02-26T01:22:19;12.30;37.30
15574;DHT22;7888;46.748;8.102;2024-02-26T01:24:45;12.20;37.40
15574;DHT22;7888;46.748;8.102;2024-02-26T01:27:11;12.20;37.60
15574;DHT22;7888;46.748;8.102;2024-02-26T01:29:36;12.10;37.80
15574;DHT22;7888;46.748;8.102;2024-02-26T01:32:02;12.10;38.00
15574;DHT22;7888;46.748;8.102;2024-02-26T01:34:30;12.00;38.30
15574;DHT22;7888;46.748;8.102;2024-02-26T01:36:56;12.00;38.40
15574;DHT22;7888;46.748;8.102;2024-02-26T01:39:21;12.00;38.50
15574;DHT22;7888;46.748;8.102;2024-02-26T01:41:47;11.90;38.60
15574;DHT22;7888;46.748;8.102;2024-02-26T01:44:13;11.90;38.90
15574;DHT22;7888;46.748;8.102;2024-02-26T01:46:39;11.90;38.90
15574;DHT22;7888;46.748;8.102;2024-02-26T01:49:06;11.80;38.50
15574;DHT22;7888;46.748;8.102;2024-02-26T01:51:33;11.80;38.10
15574;DHT22;7888;46.748;8.102;2024-02-26T01:54:01;11.80;38.40
15574;DHT22;7888;46.748;8.102;2024-02-26T01:56:29;11.70;38.40
15574;DHT22;7888;46.748;8.102;2024-02-26T01:58:56;11.70;38.60
15574;DHT22;7888;46.748;8.102;2024-02-26T02:01:25;11.70;38.00
15574;DHT22;7888;46.748;8.102;2024-02-26T02:03:54;11.80;37.90
15574;DHT22;7888;46.748;8.102;2024-02-26T02:06:21;11.80;37.80
15574;DHT22;7888;46.748;8.102;2024-02-26T02:08:48;11.80;38.40
15574;DHT22;7888;46.748;8.102;2024-02-26T02:11:14;11.90;37.50
15574;DHT22;7888;46.748;8.102;2024-02-26T02:13:40;11.90;37.50
15574;DHT22;7888;46.748;8.102;2024-02-26T02:16:06;12.00;37.40
15574;DHT22;7888;46.748;8.102;2024-02-26T02:18:33;12.00;38.00
15574;DHT22;7888;46.748;8.102;2024-02-26T02:21:02;12.00;37.90
15574;DHT22;7888;46.748;8.102;2024-02-26T02:23:28;12.10;37.80
15574;DHT22;7888;46.748;8.102;2024-02-26T02:25:56;12.00;37.40
15574;DHT22;7888;46.748;8.102;2024-02-26T02:28:25;12.00;37.50
15574;DHT22;7888;46.748;8.102;2024-02-26T02:30:52;12.10;37.80
15574;DHT22;7888;46.748;8.102;2024-02-26T02:33:18;12.00;37.70
15574;DHT22;7888;46.748;8.102;2024-02-26T02:35:44;12.00;37.90
15574;DHT22;7888;46.748;8.102;2024-02-26T02:38:11;12.00;38.50
15574;DHT22;7888;46.748;8.102;2024-02-26T02:40:36;11.90;37.60
15574;DHT22;7888;46.748;8.102;2024-02-26T02:43:02;11.90;37.40
15574;DHT22;7888;46.748;8.102;2024-02-26T02:45:30;11.90;37.30
15574;DHT22;7888;46.748;8.102;2024-02-26T02:47:55;11.90;37.10
15574;DHT22;7888;46.748;8.102;2024-02-26T02:50:21;11.90;37.10
15574;DHT22;7888;46.748;8.102;2024-02-26T02:52:47;12.00;37.20
15574;DHT22;7888;46.748;8.102;2024-02-26T02:55:16;12.00;37.30
15574;DHT22;7888;46.748;8.102;2024-02-26T02:57:42;12.00;37.50
15574;DHT22;7888;46.748;8.102;2024-02-26T03:00:11;12.00;37.50
15574;DHT22;7888;46.748;8.102;2024-02-26T03:02:37;12.00;37.60
15574;DHT22;7888;46.748;8.102;2024-02-26T03:05:04;12.00;37.60
15574;DHT22;7888;46.748;8.102;2024-02-26T03:07:30;11.90;37.60
15574;DHT22;7888;46.748;8.102;2024-02-26T03:09:56;11.90;37.80
15574;DHT22;7888;46.748;8.102;2024-02-26T03:12:22;11.90;37.80
15574;DHT22;7888;46.748;8.102;2024-02-26T03:14:48;11.90;38.00
15574;DHT22;7888;46.748;8.102;2024-02-26T03:17:14;11.90;38.10
15574;DHT22;7888;46.748;8.102;2024-02-26T03:19:40;11.90;38.30
15574;DHT22;7888;46.748;8.102;2024-02-26T03:22:05;11.90;38.30
15574;DHT22;7888;46.748;8.102;2024-02-26T03:24:31;11.80;38.30
15574;DHT22;7888;46.748;8.102;2024-02-26T03:26:57;11.80;39.00
15574;DHT22;7888;46.748;8.102;2024-02-26T03:29:23;11.80;38.50
15574;DHT22;7888;46.748;8.102;2024-02-26T03:31:48;11.80;38.60
15574;DHT22;7888;46.748;8.102;2024-02-26T03:34:14;11.80;39.30
15574;DHT22;7888;46.748;8.102;2024-02-26T03:36:41;11.80;38.80
15574;DHT22;7888;46.748;8.102;2024-02-26T03:39:07;11.80;38.80
15574;DHT22;7888;46.748;8.102;2024-02-26T03:41:34;11.80;39.00
15574;DHT22;7888;46.748;8.102;2024-02-26T03:44:00;11.80;39.20
15574;DHT22;7888;46.748;8.102;2024-02-26T03:46:26;11.80;39.30
15574;DHT22;7888;46.748;8.102;2024-02-26T03:48:52;11.70;39.40
15574;DHT22;7888;46.748;8.102;2024-02-26T03:51:18;11.70;39.50
15574;DHT22;7888;46.748;8.102;2024-02-26T03:53:44;11.70;39.60
15574;DHT22;7888;46.748;8.102;2024-02-26T03:56:11;11.70;39.80
15574;DHT22;7888;46.748;8.102;2024-02-26T03:58:38;11.70;40.10
15574;DHT22;7888;46.748;8.102;2024-02-26T04:01:07;11.60;40.20
15574;DHT22;7888;46.748;8.102;2024-02-26T04:03:33;11.60;40.60
15574;DHT22;7888;46.748;8.102;2024-02-26T04:05:59;11.50;40.50
15574;DHT22;7888;46.748;8.102;2024-02-26T04:08:25;11.50;40.50
15574;DHT22;7888;46.748;8.102;2024-02-26T04:10:51;11.50;40.70
15574;DHT22;7888;46.748;8.102;2024-02-26T04:13:18;11.50;40.80
15574;DHT22;7888;46.748;8.102;2024-02-26T04:15:44;11.40;40.90
15574;DHT22;7888;46.748;8.102;2024-02-26T04:18:10;11.40;41.00
15574;DHT22;7888;46.748;8.102;2024-02-26T04:20:36;11.40;41.20
15574;DHT22;7888;46.748;8.102;2024-02-26T04:23:03;11.40;41.20
15574;DHT22;7888;46.748;8.102;2024-02-26T04:25:29;11.30;41.40
15574;DHT22;7888;46.748;8.102;2024-02-26T04:27:54;11.40;42.20
15574;DHT22;7888;46.748;8.102;2024-02-26T04:30:20;11.30;41.70
15574;DHT22;7888;46.748;8.102;2024-02-26T04:32:46;11.30;41.80
15574;DHT22;7888;46.748;8.102;2024-02-26T04:35:11;11.30;41.90
15574;DHT22;7888;46.748;8.102;2024-02-26T04:37:37;11.30;41.90
15574;DHT22;7888;46.748;8.102;2024-02-26T04:40:03;11.30;42.00
15574;DHT22;7888;46.748;8.102;2024-02-26T04:42:29;11.20;42.00
15574;DHT22;7888;46.748;8.102;2024-02-26T04:44:55;11.20;42.00
15574;DHT22;7888;46.748;8.102;2024-02-26T04:47:21;11.20;42.20
15574;DHT22;7888;46.748;8.102;2024-02-26T04:49:50;11.20;42.30
15574;DHT22;7888;46.748;8.102;2024-02-26T04:52:17;11.10;42.40
15574;DHT22;7888;46.748;8.102;2024-02-26T04:54:44;11.10;42.40
15574;DHT22;7888;46.748;8.102;2024-02-26T04:57:10;11.10;42.40
15574;DHT22;7888;46.748;8.102;2024-02-26T04:59:35;11.10;42.50
15574;DHT22;7888;46.748;8.102;2024-02-26T05:02:01;11.10;42.60
15574;DHT22;7888;46.748;8.102;2024-02-26T05:04:27;11.10;42.60
15574;DHT22;7888;46.748;8.102;2024-02-26T05:06:53;11.00;42.70
15574;DHT22;7888;46.748;8.102;2024-02-26T05:09:19;11.00;42.80
15574;DHT22;7888;46.748;8.102;2024-02-26T05:11:45;11.00;43.00
15574;DHT22;7888;46.748;8.102;2024-02-26T05:14:11;11.00;43.10
15574;DHT22;7888;46.748;8.102;2024-02-26T05:16:37;11.00;43.10
15574;DHT22;7888;46.748;8.102;2024-02-26T05:19:02;11.00;43.00
15574;DHT22;7888;46.748;8.102;2024-02-26T05:21:28;11.00;43.00
15574;DHT22;7888;46.748;8.102;2024-02-26T05:23:54;10.90;43.00
15574;DHT22;7888;46.748;8.102;2024-02-26T05:26:21;11.00;43.10
15574;DHT22;7888;46.748;8.102;2024-02-26T05:28:47;10.90;43.10
15574;DHT22;7888;46.748;8.102;2024-02-26T05:31:14;10.90;43.10
15574;DHT22;7888;46.748;8.102;2024-02-26T05:33:40;10.90;43.30
15574;DHT22;7888;46.748;8.102;2024-02-26T05:36:06;10.90;43.40
15574;DHT22;7888;46.748;8.102;2024-02-26T05:38:32;10.90;43.40
15574;DHT22;7888;46.748;8.102;2024-02-26T05:40:58;10.90;43.40
15574;DHT22;7888;46.748;8.102;2024-02-26T05:43:25;10.90;43.40
15574;DHT22;7888;46.748;8.102;2024-02-26T05:45:52;10.80;43.30
15574;DHT22;7888;46.748;8.102;2024-02-26T05:48:18;10.90;43.50
15574;DHT22;7888;46.748;8.102;2024-02-26T05:50:45;10.80;43.50
15574;DHT22;7888;46.748;8.102;2024-02-26T05:53:11;10.80;43.60
15574;DHT22;7888;46.748;8.102;2024-02-26T05:55:37;10.80;43.80
15574;DHT22;7888;46.748;8.102;2024-02-26T05:58:03;10.80;43.90
15574;DHT22;7888;46.748;8.102;2024-02-26T06:00:30;10.80;43.90
15574;DHT22;7888;46.748;8.102;2024-02-26T06:02:55;10.80;43.80
15574;DHT22;7888;46.748;8.102;2024-02-26T06:05:21;10.70;43.80
15574;DHT22;7888;46.748;8.102;2024-02-26T06:07:47;10.80;43.80
15574;DHT22;7888;46.748;8.102;2024-02-26T06:10:13;10.70;43.80
15574;DHT22;7888;46.748;8.102;2024-02-26T06:12:42;10.70;43.90
15574;DHT22;7888;46.748;8.102;2024-02-26T06:15:08;10.70;43.90
15574;DHT22;7888;46.748;8.102;2024-02-26T06:17:34;10.70;43.90
15574;DHT22;7888;46.748;8.102;2024-02-26T06:20:00;10.70;44.00
15574;DHT22;7888;46.748;8.102;2024-02-26T06:22:26;10.70;44.10
15574;DHT22;7888;46.748;8.102;2024-02-26T06:24:52;10.70;44.20
15574;DHT22;7888;46.748;8.102;2024-02-26T06:27:18;10.70;44.20
15574;DHT22;7888;46.748;8.102;2024-02-26T06:29:44;10.70;44.20
15574;DHT22;7888;46.748;8.102;2024-02-26T06:32:09;10.60;44.10
15574;DHT22;7888;46.748;8.102;2024-02-26T06:34:35;10.60;44.20
15574;DHT22;7888;46.748;8.102;2024-02-26T06:37:01;10.60;44.20
15574;DHT22;7888;46.748;8.102;2024-02-26T06:39:29;10.60;44.20
15574;DHT22;7888;46.748;8.102;2024-02-26T06:41:54;10.50;44.30
15574;DHT22;7888;46.748;8.102;2024-02-26T06:44:25;10.50;44.30
15574;DHT22;7888;46.748;8.102;2024-02-26T06:46:57;10.50;44.30
15574;DHT22;7888;46.748;8.102;2024-02-26T06:49:24;10.50;44.30
15574;DHT22;7888;46.748;8.102;2024-02-26T06:51:50;10.50;44.40
15574;DHT22;7888;46.748;8.102;2024-02-26T06:54:16;10.40;44.50
15574;DHT22;7888;46.748;8.102;2024-02-26T06:56:42;10.40;44.60
15574;DHT22;7888;46.748;8.102;2024-02-26T06:59:07;10.40;44.60
15574;DHT22;7888;46.748;8.102;2024-02-26T07:01:33;10.40;44.70
15574;DHT22;7888;46.748;8.102;2024-02-26T07:03:59;10.40;44.80
15574;DHT22;7888;46.748;8.102;2024-02-26T07:06:26;10.30;44.80
15574;DHT22;7888;46.748;8.102;2024-02-26T07:08:52;10.40;45.00
15574;DHT22;7888;46.748;8.102;2024-02-26T07:11:19;10.40;45.00
15574;DHT22;7888;46.748;8.102;2024-02-26T07:13:46;10.40;45.20
15574;DHT22;7888;46.748;8.102;2024-02-26T07:16:12;10.40;44.90
15574;DHT22;7888;46.748;8.102;2024-02-26T07:18:39;10.40;44.60
15574;DHT22;7888;46.748;8.102;2024-02-26T07:21:05;10.40;45.00
15574;DHT22;7888;46.748;8.102;2024-02-26T07:23:31;10.50;45.10
15574;DHT22;7888;46.748;8.102;2024-02-26T07:25:57;10.50;45.20
15574;DHT22;7888;46.748;8.102;2024-02-26T07:28:24;10.50;44.60
15574;DHT22;7888;46.748;8.102;2024-02-26T07:30:50;10.50;44.60
15574;DHT22;7888;46.748;8.102;2024-02-26T07:33:16;10.60;44.70
15574;DHT22;7888;46.748;8.102;2024-02-26T07:35:41;10.60;44.90
15574;DHT22;7888;46.748;8.102;2024-02-26T07:38:07;10.60;44.70
15574;DHT22;7888;46.748;8.102;2024-02-26T07:40:33;10.60;44.80
15574;DHT22;7888;46.748;8.102;2024-02-26T07:42:59;10.60;45.00
15574;DHT22;7888;46.748;8.102;2024-02-26T07:45:24;10.60;45.10
15574;DHT22;7888;46.748;8.102;2024-02-26T07:47:50;10.60;45.10
15574;DHT22;7888;46.748;8.102;2024-02-26T07:50:17;10.60;45.30
15574;DHT22;7888;46.748;8.102;2024-02-26T07:52:44;10.70;45.40
15574;DHT22;7888;46.748;8.102;2024-02-26T07:55:10;10.70;45.50
15574;DHT22;7888;46.748;8.102;2024-02-26T07:57:36;10.70;45.50
15574;DHT22;7888;46.748;8.102;2024-02-26T08:00:05;10.70;45.60
15574;DHT22;7888;46.748;8.102;2024-02-26T08:02:35;10.70;46.00
15574;DHT22;7888;46.748;8.102;2024-02-26T08:05:01;10.80;45.80
15574;DHT22;7888;46.748;8.102;2024-02-26T08:07:27;10.80;45.80
15574;DHT22;7888;46.748;8.102;2024-02-26T08:09:54;10.80;45.90
15574;DHT22;7888;46.748;8.102;2024-02-26T08:12:19;10.90;46.00
15574;DHT22;7888;46.748;8.102;2024-02-26T08:14:45;10.90;46.70
15574;DHT22;7888;46.748;8.102;2024-02-26T08:17:11;10.90;46.10
15574;DHT22;7888;46.748;8.102;2024-02-26T08:19:37;11.00;46.00
15574;DHT22;7888;46.748;8.102;2024-02-26T08:22:04;11.00;45.80
15574;DHT22;7888;46.748;8.102;2024-02-26T08:24:30;11.10;45.70
15574;DHT22;7888;46.748;8.102;2024-02-26T08:26:55;11.20;45.70
15574;DHT22;7888;46.748;8.102;2024-02-26T08:29:21;11.20;45.70
15574;DHT22;7888;46.748;8.102;2024-02-26T08:31:47;11.30;45.70
15574;DHT22;7888;46.748;8.102;2024-02-26T08:34:13;11.30;45.70
15574;DHT22;7888;46.748;8.102;2024-02-26T08:36:39;11.40;46.30
15574;DHT22;7888;46.748;8.102;2024-02-26T08:39:05;11.50;45.70
15574;DHT22;7888;46.748;8.102;2024-02-26T08:41:30;11.50;45.70
15574;DHT22;7888;46.748;8.102;2024-02-26T08:43:56;11.60;45.60
15574;DHT22;7888;46.748;8.102;2024-02-26T08:46:23;11.70;45.70
15574;DHT22;7888;46.748;8.102;2024-02-26T08:48:49;11.70;45.70
15574;DHT22;7888;46.748;8.102;2024-02-26T08:51:15;11.80;45.60
15574;DHT22;7888;46.748;8.102;2024-02-26T08:53:40;11.90;45.60
15574;DHT22;7888;46.748;8.102;2024-02-26T08:56:06;11.90;45.50
15574;DHT22;7888;46.748;8.102;2024-02-26T08:58:32;12.00;45.40
15574;DHT22;7888;46.748;8.102;2024-02-26T09:00:58;12.00;45.40
15574;DHT22;7888;46.748;8.102;2024-02-26T09:03:23;12.00;45.40
15574;DHT22;7888;46.748;8.102;2024-02-26T09:05:49;12.10;45.00
15574;DHT22;7888;46.748;8.102;2024-02-26T09:08:15;12.10;45.00
15574;DHT22;7888;46.748;8.102;2024-02-26T09:10:41;12.20;44.90
15574;DHT22;7888;46.748;8.102;2024-02-26T09:13:07;12.20;44.40
15574;DHT22;7888;46.748;8.102;2024-02-26T09:15:33;12.20;44.10
15574;DHT22;7888;46.748;8.102;2024-02-26T09:17:59;12.30;43.90
15574;DHT22;7888;46.748;8.102;2024-02-26T09:20:25;12.40;43.90
15574;DHT22;7888;46.748;8.102;2024-02-26T09:22:51;12.50;44.20
15574;DHT22;7888;46.748;8.102;2024-02-26T09:25:17;12.50;43.40
15574;DHT22;7888;46.748;8.102;2024-02-26T09:27:43;12.60;43.60
15574;DHT22;7888;46.748;8.102;2024-02-26T09:30:13;12.70;43.10
15574;DHT22;7888;46.748;8.102;2024-02-26T09:32:39;12.80;43.30
15574;DHT22;7888;46.748;8.102;2024-02-26T09:35:06;12.90;43.50
15574;DHT22;7888;46.748;8.102;2024-02-26T09:37:33;13.00;43.60
15574;DHT22;7888;46.748;8.102;2024-02-26T09:39:59;13.10;42.20
15574;DHT22;7888;46.748;8.102;2024-02-26T09:42:26;13.20;42.40
15574;DHT22;7888;46.748;8.102;2024-02-26T09:44:54;13.30;42.60
15574;DHT22;7888;46.748;8.102;2024-02-26T09:47:27;13.40;43.20
15574;DHT22;7888;46.748;8.102;2024-02-26T09:49:56;13.50;40.60
15574;DHT22;7888;46.748;8.102;2024-02-26T09:52:25;13.60;39.70
15574;DHT22;7888;46.748;8.102;2024-02-26T09:54:53;13.60;40.00
15574;DHT22;7888;46.748;8.102;2024-02-26T09:57:20;13.70;39.90
15574;DHT22;7888;46.748;8.102;2024-02-26T09:59:51;13.80;40.50
15574;DHT22;7888;46.748;8.102;2024-02-26T10:02:20;13.90;39.40
15574;DHT22;7888;46.748;8.102;2024-02-26T10:04:47;13.90;39.60
15574;DHT22;7888;46.748;8.102;2024-02-26T10:07:16;14.00;39.10
15574;DHT22;7888;46.748;8.102;2024-02-26T10:09:42;14.10;38.20
15574;DHT22;7888;46.748;8.102;2024-02-26T10:12:10;14.10;39.30
15574;DHT22;7888;46.748;8.102;2024-02-26T10:14:40;14.10;38.10
15574;DHT22;7888;46.748;8.102;2024-02-26T10:17:17;14.20;37.30
15574;DHT22;7888;46.748;8.102;2024-02-26T10:19:44;14.20;36.50
15574;DHT22;7888;46.748;8.102;2024-02-26T10:22:10;14.30;36.10
15574;DHT22;7888;46.748;8.102;2024-02-26T10:24:36;14.30;36.50
15574;DHT22;7888;46.748;8.102;2024-02-26T10:27:02;14.30;36.50
15574;DHT22;7888;46.748;8.102;2024-02-26T10:29:28;14.40;35.90
15574;DHT22;7888;46.748;8.102;2024-02-26T10:31:54;14.40;35.80
15574;DHT22;7888;46.748;8.102;2024-02-26T10:34:21;14.40;35.30
15574;DHT22;7888;46.748;8.102;2024-02-26T10:36:47;14.40;35.60
15574;DHT22;7888;46.748;8.102;2024-02-26T10:39:13;14.50;35.30
15574;DHT22;7888;46.748;8.102;2024-02-26T10:41:44;14.40;35.30
15574;DHT22;7888;46.748;8.102;2024-02-26T10:44:11;14.50;35.30
15574;DHT22;7888;46.748;8.102;2024-02-26T10:46:39;14.50;35.10
15574;DHT22;7888;46.748;8.102;2024-02-26T10:49:13;14.50;35.30
15574;DHT22;7888;46.748;8.102;2024-02-26T10:51:58;14.50;35.00
15574;DHT22;7888;46.748;8.102;2024-02-26T10:54:26;14.50;34.60
15574;DHT22;7888;46.748;8.102;2024-02-26T10:56:56;14.50;34.40
15574;DHT22;7888;46.748;8.102;2024-02-26T10:59:23;14.60;34.90
15574;DHT22;7888;46.748;8.102;2024-02-26T11:01:49;14.50;34.60
15574;DHT22;7888;46.748;8.102;2024-02-26T11:04:16;14.60;34.60
15574;DHT22;7888;46.748;8.102;2024-02-26T11:06:46;14.60;34.70
15574;DHT22;7888;46.748;8.102;2024-02-26T11:09:14;14.70;34.90
15574;DHT22;7888;46.748;8.102;2024-02-26T11:11:40;14.70;34.40
15574;DHT22;7888;46.748;8.102;2024-02-26T11:14:08;14.70;34.50
15574;DHT22;7888;46.748;8.102;2024-02-26T11:16:35;14.70;34.50
15574;DHT22;7888;46.748;8.102;2024-02-26T11:19:02;14.80;34.30
15574;DHT22;7888;46.748;8.102;2024-02-26T11:21:28;14.80;34.10
15574;DHT22;7888;46.748;8.102;2024-02-26T11:24:14;14.90;34.10
15574;DHT22;7888;46.748;8.102;2024-02-26T11:26:53;14.90;33.60
15574;DHT22;7888;46.748;8.102;2024-02-26T11:29:32;14.90;33.10
15574;DHT22;7888;46.748;8.102;2024-02-26T11:32:01;14.90;33.50
15574;DHT22;7888;46.748;8.102;2024-02-26T11:34:27;15.00;33.80
15574;DHT22;7888;46.748;8.102;2024-02-26T11:36:54;15.00;33.70
15574;DHT22;7888;46.748;8.102;2024-02-26T11:39:21;15.10;33.90
15574;DHT22;7888;46.748;8.102;2024-02-26T11:41:48;15.10;33.20
15574;DHT22;7888;46.748;8.102;2024-02-26T11:44:28;15.20;33.10
15574;DHT22;7888;46.748;8.102;2024-02-26T11:46:56;15.20;32.80
15574;DHT22;7888;46.748;8.102;2024-02-26T11:51:54;15.40;32.80
15574;DHT22;7888;46.748;8.102;2024-02-26T11:54:49;15.40;32.70
15574;DHT22;7888;46.748;8.102;2024-02-26T12:00:14;15.50;32.50
15574;DHT22;7888;46.748;8.102;2024-02-26T12:05:16;15.60;32.70
15574;DHT22;7888;46.748;8.102;2024-02-26T12:07:55;15.70;33.00
15574;DHT22;7888;46.748;8.102;2024-02-26T12:10:36;15.70;33.70
15574;DHT22;7888;46.748;8.102;2024-02-26T12:13:17;15.70;34.30
15574;DHT22;7888;46.748;8.102;2024-02-26T12:15:45;15.80;32.60
15574;DHT22;7888;46.748;8.102;2024-02-26T12:18:20;15.80;32.80
15574;DHT22;7888;46.748;8.102;2024-02-26T12:20:47;15.80;32.60
15574;DHT22;7888;46.748;8.102;2024-02-26T12:23:16;15.80;32.70
15574;DHT22;7888;46.748;8.102;2024-02-26T12:25:48;15.80;32.60
15574;DHT22;7888;46.748;8.102;2024-02-26T12:28:15;15.80;32.70
15574;DHT22;7888;46.748;8.102;2024-02-26T12:30:40;15.90;33.60
15574;DHT22;7888;46.748;8.102;2024-02-26T12:33:08;15.90;33.50
15574;DHT22;7888;46.748;8.102;2024-02-26T12:35:35;15.90;32.80
15574;DHT22;7888;46.748;8.102;2024-02-26T12:38:02;15.90;32.30
15574;DHT22;7888;46.748;8.102;2024-02-26T12:40:29;15.90;32.30
15574;DHT22;7888;46.748;8.102;2024-02-26T12:42:56;15.90;32.60
15574;DHT22;7888;46.748;8.102;2024-02-26T12:45:22;16.00;33.30
15574;DHT22;7888;46.748;8.102;2024-02-26T12:47:47;16.00;33.40
15574;DHT22;7888;46.748;8.102;2024-02-26T12:50:17;16.00;33.50
15574;DHT22;7888;46.748;8.102;2024-02-26T12:52:45;16.00;33.10
15574;DHT22;7888;46.748;8.102;2024-02-26T12:55:15;15.90;33.80
15574;DHT22;7888;46.748;8.102;2024-02-26T12:57:44;15.90;35.00
15574;DHT22;7888;46.748;8.102;2024-02-26T13:00:16;15.90;33.70
15574;DHT22;7888;46.748;8.102;2024-02-26T13:02:45;15.90;33.60
15574;DHT22;7888;46.748;8.102;2024-02-26T13:05:13;15.90;34.60
15574;DHT22;7888;46.748;8.102;2024-02-26T13:07:41;15.90;35.30
15574;DHT22;7888;46.748;8.102;2024-02-26T13:10:09;15.90;35.70
15574;DHT22;7888;46.748;8.102;2024-02-26T13:12:42;15.90;35.60
15574;DHT22;7888;46.748;8.102;2024-02-26T13:15:18;15.80;34.80
15574;DHT22;7888;46.748;8.102;2024-02-26T13:17:45;15.80;34.60
15574;DHT22;7888;46.748;8.102;2024-02-26T13:20:12;15.80;36.30
15574;DHT22;7888;46.748;8.102;2024-02-26T13:22:40;15.80;35.70
15574;DHT22;7888;46.748;8.102;2024-02-26T13:25:06;15.80;36.10
15574;DHT22;7888;46.748;8.102;2024-02-26T13:27:33;15.70;36.20
15574;DHT22;7888;46.748;8.102;2024-02-26T13:30:09;15.70;36.70
15574;DHT22;7888;46.748;8.102;2024-02-26T13:32:37;15.70;37.30
15574;DHT22;7888;46.748;8.102;2024-02-26T13:35:11;15.80;37.20
15574;DHT22;7888;46.748;8.102;2024-02-26T13:37:39;15.80;37.70
15574;DHT22;7888;46.748;8.102;2024-02-26T13:42:34;15.80;37.30
15574;DHT22;7888;46.748;8.102;2024-02-26T13:45:00;15.80;37.10
15574;DHT22;7888;46.748;8.102;2024-02-26T13:47:26;15.80;36.90
15574;DHT22;7888;46.748;8.102;2024-02-26T13:49:51;15.90;37.00
15574;DHT22;7888;46.748;8.102;2024-02-26T13:52:17;15.90;37.00
15574;DHT22;7888;46.748;8.102;2024-02-26T13:54:45;15.90;37.30
15574;DHT22;7888;46.748;8.102;2024-02-26T13:57:12;15.90;37.30
15574;DHT22;7888;46.748;8.102;2024-02-26T13:59:37;15.90;37.30
15574;DHT22;7888;46.748;8.102;2024-02-26T14:02:08;16.00;37.50
15574;DHT22;7888;46.748;8.102;2024-02-26T14:04:34;16.00;37.50
15574;DHT22;7888;46.748;8.102;2024-02-26T14:07:00;16.00;37.60
15574;DHT22;7888;46.748;8.102;2024-02-26T14:09:26;16.00;37.80
15574;DHT22;7888;46.748;8.102;2024-02-26T14:11:52;16.00;37.80
15574;DHT22;7888;46.748;8.102;2024-02-26T14:14:17;16.00;38.00
15574;DHT22;7888;46.748;8.102;2024-02-26T14:16:43;16.00;38.10
15574;DHT22;7888;46.748;8.102;2024-02-26T14:19:09;15.90;38.10
15574;DHT22;7888;46.748;8.102;2024-02-26T14:21:35;16.00;38.10
15574;DHT22;7888;46.748;8.102;2024-02-26T14:24:00;15.90;38.20
15574;DHT22;7888;46.748;8.102;2024-02-26T14:26:26;15.90;38.40
15574;DHT22;7888;46.748;8.102;2024-02-26T14:28:52;15.90;38.50
15574;DHT22;7888;46.748;8.102;2024-02-26T14:31:18;15.90;38.60
15574;DHT22;7888;46.748;8.102;2024-02-26T14:33:44;15.90;38.80
15574;DHT22;7888;46.748;8.102;2024-02-26T14:36:11;15.90;38.90
15574;DHT22;7888;46.748;8.102;2024-02-26T14:38:37;15.90;38.90
15574;DHT22;7888;46.748;8.102;2024-02-26T14:41:05;15.90;39.00
15574;DHT22;7888;46.748;8.102;2024-02-26T14:43:31;15.90;38.90
15574;DHT22;7888;46.748;8.102;2024-02-26T14:45:58;15.90;38.90
15574;DHT22;7888;46.748;8.102;2024-02-26T14:48:24;15.80;38.90
15574;DHT22;7888;46.748;8.102;2024-02-26T14:50:50;15.80;39.10
15574;DHT22;7888;46.748;8.102;2024-02-26T14:53:17;15.80;39.20
15574;DHT22;7888;46.748;8.102;2024-02-26T14:55:43;15.80;39.20
15574;DHT22;7888;46.748;8.102;2024-02-26T14:58:09;15.80;39.40
15574;DHT22;7888;46.748;8.102;2024-02-26T15:00:36;15.80;39.40
15574;DHT22;7888;46.748;8.102;2024-02-26T15:03:04;15.80;39.50
15574;DHT22;7888;46.748;8.102;2024-02-26T15:05:29;15.80;39.60
15574;DHT22;7888;46.748;8.102;2024-02-26T15:07:55;15.80;39.60
15574;DHT22;7888;46.748;8.102;2024-02-26T15:10:21;15.80;39.70
15574;DHT22;7888;46.748;8.102;2024-02-26T15:12:47;15.80;39.70
15574;DHT22;7888;46.748;8.102;2024-02-26T15:15:13;15.80;39.70
15574;DHT22;7888;46.748;8.102;2024-02-26T15:17:39;15.80;39.70
15574;DHT22;7888;46.748;8.102;2024-02-26T15:20:05;15.80;39.70
15574;DHT22;7888;46.748;8.102;2024-02-26T15:22:33;15.70;39.70
15574;DHT22;7888;46.748;8.102;2024-02-26T15:24:59;15.70;39.80
15574;DHT22;7888;46.748;8.102;2024-02-26T15:27:25;15.70;39.80
15574;DHT22;7888;46.748;8.102;2024-02-26T15:29:51;15.60;40.00
15574;DHT22;7888;46.748;8.102;2024-02-26T15:32:23;15.60;40.10
15574;DHT22;7888;46.748;8.102;2024-02-26T15:34:53;15.60;40.30
15574;DHT22;7888;46.748;8.102;2024-02-26T15:37:20;15.50;40.40
15574;DHT22;7888;46.748;8.102;2024-02-26T15:39:46;15.50;40.50
15574;DHT22;7888;46.748;8.102;2024-02-26T15:42:12;15.50;40.40
15574;DHT22;7888;46.748;8.102;2024-02-26T15:44:38;15.40;40.40
15574;DHT22;7888;46.748;8.102;2024-02-26T15:47:04;15.40;40.60
15574;DHT22;7888;46.748;8.102;2024-02-26T15:49:31;15.40;40.80
15574;DHT22;7888;46.748;8.102;2024-02-26T15:51:57;15.40;40.90
15574;DHT22;7888;46.748;8.102;2024-02-26T15:54:23;15.30;41.50